sensor_id;sensor_type;location;lat;lon;timestamp;pressure;altitude;pressure_sealevel;temperature;humidity
40384;BME280;26097;42.366;23.818;2023-02-23T00:01:13;93953.25;;;1.18;100.00
40384;BME280;26097;42.366;23.818;2023-02-23T00:04:13;93944.25;;;1.28;100.00
40384;BME280;26097;42.366;23.818;2023-02-23T00:07:14;93947.16;;;1.21;100.00
40384;BME280;26097;42.366;23.818;2023-02-23T00:10:18;93951.81;;;1.11;100.00
40384;BME280;26097;42.366;23.818;2023-02-23T00:13:20;93946.69;;;1.11;100.00
40384;BME280;26097;42.366;23.818;2023-02-23T00:16:22;93948.34;;;1.12;100.00
40384;BME280;26097;42.366;23.818;2023-02-23T00:19:23;93952.13;;;1.03;100.00
40384;BME280;26097;42.366;23.818;2023-02-23T00:22:24;93948.63;;;1.06;100.00
40384;BME280;26097;42.366;23.818;2023-02-23T00:25:26;93958.63;;;1.12;100.00
40384;BME280;26097;42.366;23.818;2023-02-23T00:28:26;93956.25;;;1.07;100.00
40384;BME280;26097;42.366;23.818;2023-02-23T00:31:27;93960.56;;;1.07;100.00
40384;BME280;26097;42.366;23.818;2023-02-23T00:34:28;93951.06;;;1.09;100.00
40384;BME280;26097;42.366;23.818;2023-02-23T00:37:28;93957.09;;;1.08;100.00
40384;BME280;26097;42.366;23.818;2023-02-23T00:40:29;93953.63;;;1.09;100.00
40384;BME280;26097;42.366;23.818;2023-02-23T00:43:32;93949.66;;;1.02;100.00
40384;BME280;26097;42.366;23.818;2023-02-23T00:46:33;93954.31;;;0.92;100.00
40384;BME280;26097;42.366;23.818;2023-02-23T00:49:33;93948.53;;;0.87;100.00
40384;BME280;26097;42.366;23.818;2023-02-23T00:52:34;93946.63;;;0.92;100.00
40384;BME280;26097;42.366;23.818;2023-02-23T00:55:35;93944.38;;;0.84;100.00
40384;BME280;26097;42.366;23.818;2023-02-23T00:58:40;93951.28;;;0.82;100.00
40384;BME280;26097;42.366;23.818;2023-02-23T01:01:41;93935.91;;;0.82;100.00
40384;BME280;26097;42.366;23.818;2023-02-23T01:04:41;93940.13;;;0.83;100.00
40384;BME280;26097;42.366;23.818;2023-02-23T01:07:42;93937.78;;;0.77;100.00
40384;BME280;26097;42.366;23.818;2023-02-23T01:10:45;93941.25;;;0.76;100.00
40384;BME280;26097;42.366;23.818;2023-02-23T01:13:53;93932.03;;;0.71;100.00
40384;BME280;26097;42.366;23.818;2023-02-23T01:16:54;93944.03;;;0.71;100.00
40384;BME280;26097;42.366;23.818;2023-02-23T01:19:54;93937.28;;;0.68;100.00
40384;BME280;26097;42.366;23.818;2023-02-23T01:22:55;93937.69;;;0.57;100.00
40384;BME280;26097;42.366;23.818;2023-02-23T01:25:55;93945.44;;;0.56;100.00
40384;BME280;26097;42.366;23.818;2023-02-23T01:28:58;93933.78;;;0.49;100.00
40384;BME280;26097;42.366;23.818;2023-02-23T01:31:59;93933.66;;;0.52;100.00
40384;BME280;26097;42.366;23.818;2023-02-23T01:35:00;93936.38;;;0.47;100.00
40384;BME280;26097;42.366;23.818;2023-02-23T01:38:00;93935.56;;;0.47;100.00
40384;BME280;26097;42.366;23.818;2023-02-23T01:41:00;93935.44;;;0.50;100.00
40384;BME280;26097;42.366;23.818;2023-02-23T01:44:04;93937.22;;;0.48;100.00
40384;BME280;26097;42.366;23.818;2023-02-23T01:47:05;93936.63;;;0.41;100.00
40384;BME280;26097;42.366;23.818;2023-02-23T01:50:05;93937.69;;;0.35;100.00
40384;BME280;26097;42.366;23.818;2023-02-23T01:53:06;93933.72;;;0.28;100.00
40384;BME280;26097;42.366;23.818;2023-02-23T01:56:14;93941.56;;;0.23;100.00
40384;BME280;26097;42.366;23.818;2023-02-23T01:59:18;93932.03;;;0.27;100.00
40384;BME280;26097;42.366;23.818;2023-02-23T02:02:20;93933.06;;;0.23;100.00
40384;BME280;26097;42.366;23.818;2023-02-23T02:05:21;93932.94;;;0.26;100.00
40384;BME280;26097;42.366;23.818;2023-02-23T02:08:23;93936.16;;;0.31;100.00
40384;BME280;26097;42.366;23.818;2023-02-23T02:11:25;93938.97;;;0.25;100.00
40384;BME280;26097;42.366;23.818;2023-02-23T02:14:30;93932.81;;;0.29;100.00
40384;BME280;26097;42.366;23.818;2023-02-23T02:18:02;93933.84;;;0.25;100.00
40384;BME280;26097;42.366;23.818;2023-02-23T02:31:48;93929.25;;;0.11;100.00
40384;BME280;26097;42.366;23.818;2023-02-23T02:38:25;93937.09;;;0.06;100.00
40384;BME280;26097;42.366;23.818;2023-02-23T02:48:15;93921.09;;;-0.01;100.00
40384;BME280;26097;42.366;23.818;2023-02-23T02:54:54;93929.53;;;0.03;100.00
40384;BME280;26097;42.366;23.818;2023-02-23T02:57:57;93933.75;;;0.04;100.00
40384;BME280;26097;42.366;23.818;2023-02-23T03:01:06;93939.09;;;-0.02;100.00
40384;BME280;26097;42.366;23.818;2023-02-23T03:04:26;93938.50;;;-0.09;100.00
40384;BME280;26097;42.366;23.818;2023-02-23T03:07:53;93944.69;;;-0.15;100.00
40384;BME280;26097;42.366;23.818;2023-02-23T03:11:17;93944.69;;;-0.15;100.00
40384;BME280;26097;42.366;23.818;2023-02-23T03:14:54;93947.91;;;-0.09;100.00
40384;BME280;26097;42.366;23.818;2023-02-23T03:29:10;93946.13;;;-0.31;100.00
40384;BME280;26097;42.366;23.818;2023-02-23T03:32:35;93947.69;;;-0.27;100.00
40384;BME280;26097;42.366;23.818;2023-02-23T03:36:05;93946.13;;;-0.31;100.00
40384;BME280;26097;42.366;23.818;2023-02-23T03:39:32;93947.31;;;-0.41;100.00
40384;BME280;26097;42.366;23.818;2023-02-23T03:42:53;93945.53;;;-0.39;100.00
40384;BME280;26097;42.366;23.818;2023-02-23T03:46:15;93945.78;;;-0.46;100.00
40384;BME280;26097;42.366;23.818;2023-02-23T03:49:38;93945.88;;;-0.49;100.00
40384;BME280;26097;42.366;23.818;2023-02-23T03:52:59;93947.66;;;-0.51;100.00
40384;BME280;26097;42.366;23.818;2023-02-23T03:56:23;93950.13;;;-0.48;100.00
40384;BME280;26097;42.366;23.818;2023-02-23T03:59:54;93949.44;;;-0.53;100.00
40384;BME280;26097;42.366;23.818;2023-02-23T04:03:16;93951.94;;;-0.51;100.00
40384;BME280;26097;42.366;23.818;2023-02-23T04:06:41;93950.34;;;-0.54;100.00
40384;BME280;26097;42.366;23.818;2023-02-23T04:10:03;93946.22;;;-0.58;100.00
40384;BME280;26097;42.366;23.818;2023-02-23T04:13:25;93950.34;;;-0.54;100.00
40384;BME280;26097;42.366;23.818;2023-02-23T04:16:28;93946.75;;;-0.48;100.00
40384;BME280;26097;42.366;23.818;2023-02-23T04:19:29;93942.41;;;-0.46;100.00
40384;BME280;26097;42.366;23.818;2023-02-23T04:22:30;93944.09;;;-0.47;100.00
40384;BME280;26097;42.366;23.818;2023-02-23T04:25:30;93938.31;;;-0.52;100.00
40384;BME280;26097;42.366;23.818;2023-02-23T04:28:31;93931.53;;;-0.53;100.00
40384;BME280;26097;42.366;23.818;2023-02-23T04:31:31;93941.81;;;-0.54;100.00
40384;BME280;26097;42.366;23.818;2023-02-23T04:34:32;93941.00;;;-0.55;100.00
40384;BME280;26097;42.366;23.818;2023-02-23T04:37:32;93944.47;;;-0.58;100.00
40384;BME280;26097;42.366;23.818;2023-02-23T04:40:33;93952.28;;;-0.61;100.00
40384;BME280;26097;42.366;23.818;2023-02-23T04:43:34;93953.00;;;-0.57;100.00
40384;BME280;26097;42.366;23.818;2023-02-23T04:46:34;93951.22;;;-0.55;100.00
40384;BME280;26097;42.366;23.818;2023-02-23T04:49:35;93951.13;;;-0.52;100.00
40384;BME280;26097;42.366;23.818;2023-02-23T04:52:36;93951.34;;;-0.58;100.00
40384;BME280;26097;42.366;23.818;2023-02-23T04:55:38;93952.31;;;-0.62;100.00
40384;BME280;26097;42.366;23.818;2023-02-23T04:58:38;93946.22;;;-0.58;100.00
40384;BME280;26097;42.366;23.818;2023-02-23T05:01:38;93949.44;;;-0.53;100.00
40384;BME280;26097;42.366;23.818;2023-02-23T05:04:39;93950.44;;;-0.57;100.00
40384;BME280;26097;42.366;23.818;2023-02-23T05:07:39;93949.88;;;-0.65;100.00
40384;BME280;26097;42.366;23.818;2023-02-23T05:10:39;93950.53;;;-0.60;100.00
40384;BME280;26097;42.366;23.818;2023-02-23T05:13:40;93961.59;;;-0.58;100.00
40384;BME280;26097;42.366;23.818;2023-02-23T05:16:40;93959.69;;;-0.53;100.00
40384;BME280;26097;42.366;23.818;2023-02-23T05:19:41;93966.22;;;-0.44;100.00
40384;BME280;26097;42.366;23.818;2023-02-23T05:22:41;93973.81;;;-0.43;100.00
40384;BME280;26097;42.366;23.818;2023-02-23T05:25:41;93971.22;;;-0.41;100.00
40384;BME280;26097;42.366;23.818;2023-02-23T05:28:42;93969.22;;;-0.33;100.00
40384;BME280;26097;42.366;23.818;2023-02-23T05:31:43;93970.50;;;-0.21;100.00
40384;BME280;26097;42.366;23.818;2023-02-23T05:34:43;93983.78;;;-0.09;100.00
40384;BME280;26097;42.366;23.818;2023-02-23T05:37:44;93978.69;;;-0.11;100.00
40384;BME280;26097;42.366;23.818;2023-02-23T05:40:44;93982.22;;;-0.13;100.00
40384;BME280;26097;42.366;23.818;2023-02-23T05:43:45;93992.84;;;-0.01;100.00
40384;BME280;26097;42.366;23.818;2023-02-23T05:46:46;93993.91;;;0.18;100.00
40384;BME280;26097;42.366;23.818;2023-02-23T05:49:46;93987.44;;;0.31;100.00
40384;BME280;26097;42.366;23.818;2023-02-23T05:52:47;93992.72;;;0.50;100.00
40384;BME280;26097;42.366;23.818;2023-02-23T05:55:47;93992.00;;;0.69;100.00
40384;BME280;26097;42.366;23.818;2023-02-23T05:58:53;94000.81;;;0.84;100.00
40384;BME280;26097;42.366;23.818;2023-02-23T06:01:54;93999.41;;;0.97;100.00
40384;BME280;26097;42.366;23.818;2023-02-23T06:04:54;93995.72;;;1.05;100.00
40384;BME280;26097;42.366;23.818;2023-02-23T06:07:55;94000.56;;;1.12;100.00
40384;BME280;26097;42.366;23.818;2023-02-23T06:10:56;94001.06;;;1.21;100.00
40384;BME280;26097;42.366;23.818;2023-02-23T06:13:57;94003.00;;;1.36;100.00
40384;BME280;26097;42.366;23.818;2023-02-23T06:16:58;94007.66;;;1.49;100.00
40384;BME280;26097;42.366;23.818;2023-02-23T06:19:59;94009.88;;;1.56;100.00
40384;BME280;26097;42.366;23.818;2023-02-23T06:23:01;94010.88;;;1.73;100.00
40384;BME280;26097;42.366;23.818;2023-02-23T06:26:01;94012.88;;;1.87;100.00
40384;BME280;26097;42.366;23.818;2023-02-23T06:29:02;94018.19;;;2.03;100.00
40384;BME280;26097;42.366;23.818;2023-02-23T06:32:03;94014.03;;;2.20;100.00
40384;BME280;26097;42.366;23.818;2023-02-23T06:35:05;94016.69;;;2.37;100.00
40384;BME280;26097;42.366;23.818;2023-02-23T06:38:05;94014.31;;;2.52;100.00
40384;BME280;26097;42.366;23.818;2023-02-23T06:41:10;94010.13;;;2.68;100.00
40384;BME280;26097;42.366;23.818;2023-02-23T06:44:10;94015.38;;;2.84;100.00
40384;BME280;26097;42.366;23.818;2023-02-23T06:47:11;94026.78;;;2.98;100.00
40384;BME280;26097;42.366;23.818;2023-02-23T06:50:12;94014.91;;;3.13;100.00
40384;BME280;26097;42.366;23.818;2023-02-23T06:53:13;94015.94;;;3.28;100.00
40384;BME280;26097;42.366;23.818;2023-02-23T06:56:13;94018.66;;;3.42;100.00
40384;BME280;26097;42.366;23.818;2023-02-23T06:59:14;94015.31;;;3.58;100.00
40384;BME280;26097;42.366;23.818;2023-02-23T07:02:14;94009.56;;;3.70;100.00
40384;BME280;26097;42.366;23.818;2023-02-23T07:05:15;94014.94;;;3.83;100.00
40384;BME280;26097;42.366;23.818;2023-02-23T07:08:16;94010.06;;;3.95;100.00
40384;BME280;26097;42.366;23.818;2023-02-23T07:11:17;94011.03;;;4.10;100.00
40384;BME280;26097;42.366;23.818;2023-02-23T07:14:18;94005.66;;;4.31;100.00
40384;BME280;26097;42.366;23.818;2023-02-23T07:17:18;94004.00;;;4.46;100.00
40384;BME280;26097;42.366;23.818;2023-02-23T07:20:19;94005.59;;;4.64;100.00
40384;BME280;26097;42.366;23.818;2023-02-23T07:23:19;94011.41;;;4.84;100.00
40384;BME280;26097;42.366;23.818;2023-02-23T07:26:21;94012.63;;;5.09;100.00
40384;BME280;26097;42.366;23.818;2023-02-23T07:29:21;94009.88;;;5.28;100.00
40384;BME280;26097;42.366;23.818;2023-02-23T07:32:23;94007.16;;;5.46;100.00
40384;BME280;26097;42.366;23.818;2023-02-23T07:35:23;94010.78;;;5.57;100.00
40384;BME280;26097;42.366;23.818;2023-02-23T07:38:24;94008.06;;;5.75;100.00
40384;BME280;26097;42.366;23.818;2023-02-23T07:41:24;93999.78;;;5.99;100.00
40384;BME280;26097;42.366;23.818;2023-02-23T07:44:24;94006.66;;;6.14;100.00
40384;BME280;26097;42.366;23.818;2023-02-23T07:47:25;94001.50;;;6.29;100.00
40384;BME280;26097;42.366;23.818;2023-02-23T07:50:30;94000.66;;;6.43;100.00
40384;BME280;26097;42.366;23.818;2023-02-23T07:53:30;94000.06;;;6.52;100.00
40384;BME280;26097;42.366;23.818;2023-02-23T07:56:31;94002.72;;;6.65;100.00
40384;BME280;26097;42.366;23.818;2023-02-23T07:59:32;94002.16;;;6.75;100.00
40384;BME280;26097;42.366;23.818;2023-02-23T08:02:33;94006.75;;;6.84;100.00
40384;BME280;26097;42.366;23.818;2023-02-23T08:05:33;93998.44;;;6.93;100.00
40384;BME280;26097;42.366;23.818;2023-02-23T08:08:35;94006.78;;;7.11;100.00
40384;BME280;26097;42.366;23.818;2023-02-23T08:11:35;94006.09;;;7.22;100.00
40384;BME280;26097;42.366;23.818;2023-02-23T08:14:36;94001.78;;;7.36;100.00
40384;BME280;26097;42.366;23.818;2023-02-23T08:17:37;93999.13;;;7.50;100.00
40384;BME280;26097;42.366;23.818;2023-02-23T08:20:38;94004.38;;;7.76;100.00
40384;BME280;26097;42.366;23.818;2023-02-23T08:23:38;94002.72;;;7.88;100.00
40384;BME280;26097;42.366;23.818;2023-02-23T08:26:38;94000.97;;;8.02;100.00
40384;BME280;26097;42.366;23.818;2023-02-23T08:29:39;94002.94;;;8.24;100.00
40384;BME280;26097;42.366;23.818;2023-02-23T08:32:39;94002.53;;;8.30;100.00
40384;BME280;26097;42.366;23.818;2023-02-23T08:35:40;94002.00;;;8.25;100.00
40384;BME280;26097;42.366;23.818;2023-02-23T08:38:40;93999.00;;;8.31;100.00
40384;BME280;26097;42.366;23.818;2023-02-23T08:41:41;93998.66;;;8.49;100.00
40384;BME280;26097;42.366;23.818;2023-02-23T08:44:41;93998.53;;;8.63;100.00
40384;BME280;26097;42.366;23.818;2023-02-23T08:47:42;93993.53;;;8.73;100.00
40384;BME280;26097;42.366;23.818;2023-02-23T08:50:42;93997.25;;;8.82;100.00
40384;BME280;26097;42.366;23.818;2023-02-23T08:53:42;93995.38;;;8.84;100.00
40384;BME280;26097;42.366;23.818;2023-02-23T08:56:43;93999.06;;;9.06;100.00
40384;BME280;26097;42.366;23.818;2023-02-23T08:59:44;94004.78;;;9.11;100.00
40384;BME280;26097;42.366;23.818;2023-02-23T09:02:45;94007.81;;;9.05;100.00
40384;BME280;26097;42.366;23.818;2023-02-23T09:05:48;94004.53;;;9.14;100.00
40384;BME280;26097;42.366;23.818;2023-02-23T09:08:49;94006.22;;;9.39;100.00
40384;BME280;26097;42.366;23.818;2023-02-23T09:11:49;94001.00;;;9.39;100.00
40384;BME280;26097;42.366;23.818;2023-02-23T09:14:50;94003.53;;;9.52;100.00
40384;BME280;26097;42.366;23.818;2023-02-23T09:17:52;93996.34;;;9.56;100.00
40384;BME280;26097;42.366;23.818;2023-02-23T09:20:54;93996.97;;;9.71;100.00
40384;BME280;26097;42.366;23.818;2023-02-23T09:23:54;93998.81;;;9.93;100.00
40384;BME280;26097;42.366;23.818;2023-02-23T09:26:55;93997.78;;;10.07;100.00
40384;BME280;26097;42.366;23.818;2023-02-23T09:29:55;93998.25;;;10.12;100.00
40384;BME280;26097;42.366;23.818;2023-02-23T09:32:56;93996.63;;;10.34;100.00
40384;BME280;26097;42.366;23.818;2023-02-23T09:35:56;93996.16;;;10.40;100.00
40384;BME280;26097;42.366;23.818;2023-02-23T09:38:57;93998.31;;;10.47;100.00
40384;BME280;26097;42.366;23.818;2023-02-23T09:45:41;93999.34;;;10.90;88.75
40384;BME280;26097;42.366;23.818;2023-02-23T09:48:42;93999.25;;;10.91;79.06
40384;BME280;26097;42.366;23.818;2023-02-23T09:51:48;93997.47;;;10.92;76.25
40384;BME280;26097;42.366;23.818;2023-02-23T09:54:52;93993.63;;;11.07;75.14
40384;BME280;26097;42.366;23.818;2023-02-23T09:57:55;93998.00;;;11.18;73.59
40384;BME280;26097;42.366;23.818;2023-02-23T10:04:44;93990.69;;;11.45;70.19
40384;BME280;26097;42.366;23.818;2023-02-23T10:07:55;93989.31;;;11.62;70.00
40384;BME280;26097;42.366;23.818;2023-02-23T10:23:58;93974.72;;;12.13;65.17
40384;BME280;26097;42.366;23.818;2023-02-23T10:27:06;93976.53;;;12.22;64.90
40384;BME280;26097;42.366;23.818;2023-02-23T10:33:34;93965.44;;;12.30;63.93
40384;BME280;26097;42.366;23.818;2023-02-23T10:36:42;93968.63;;;12.34;63.11
40384;BME280;26097;42.366;23.818;2023-02-23T10:39:43;93958.81;;;12.26;63.12
40384;BME280;26097;42.366;23.818;2023-02-23T10:42:44;93951.94;;;12.25;62.90
40384;BME280;26097;42.366;23.818;2023-02-23T10:45:49;93960.25;;;12.40;63.10
40384;BME280;26097;42.366;23.818;2023-02-23T10:48:51;93957.47;;;12.73;62.14
40384;BME280;26097;42.366;23.818;2023-02-23T10:51:54;93951.31;;;12.83;62.02
40384;BME280;26097;42.366;23.818;2023-02-23T10:55:05;93954.09;;;12.92;61.21
40384;BME280;26097;42.366;23.818;2023-02-23T10:58:16;93947.72;;;12.75;61.21
40384;BME280;26097;42.366;23.818;2023-02-23T11:04:33;93938.56;;;13.10;60.35
40384;BME280;26097;42.366;23.818;2023-02-23T11:07:33;93938.13;;;12.95;58.93
40384;BME280;26097;42.366;23.818;2023-02-23T11:10:34;93934.44;;;13.07;58.31
40384;BME280;26097;42.366;23.818;2023-02-23T11:13:38;93938.94;;;12.85;58.88
40384;BME280;26097;42.366;23.818;2023-02-23T11:16:39;93933.59;;;13.07;58.72
40384;BME280;26097;42.366;23.818;2023-02-23T11:19:40;93939.25;;;13.22;58.21
40384;BME280;26097;42.366;23.818;2023-02-23T11:22:41;93936.94;;;13.28;58.06
40384;BME280;26097;42.366;23.818;2023-02-23T11:25:42;93928.00;;;13.70;57.57
40384;BME280;26097;42.366;23.818;2023-02-23T11:28:45;93923.06;;;13.57;56.31
40384;BME280;26097;42.366;23.818;2023-02-23T11:31:54;93921.81;;;13.62;56.24
40384;BME280;26097;42.366;23.818;2023-02-23T11:38:22;93927.91;;;14.20;53.81
40384;BME280;26097;42.366;23.818;2023-02-23T11:41:23;93922.75;;;14.28;54.36
40384;BME280;26097;42.366;23.818;2023-02-23T11:44:23;93915.63;;;14.10;54.93
40384;BME280;26097;42.366;23.818;2023-02-23T11:47:24;93925.47;;;13.98;54.55
40384;BME280;26097;42.366;23.818;2023-02-23T11:50:29;93929.03;;;14.07;54.27
40384;BME280;26097;42.366;23.818;2023-02-23T11:56:33;93921.97;;;14.18;53.89
40384;BME280;26097;42.366;23.818;2023-02-23T11:59:38;93928.97;;;14.27;53.75
40384;BME280;26097;42.366;23.818;2023-02-23T12:02:51;93924.56;;;14.27;53.33
40384;BME280;26097;42.366;23.818;2023-02-23T12:05:55;93930.03;;;14.34;54.07
40384;BME280;26097;42.366;23.818;2023-02-23T12:09:19;93935.41;;;14.42;52.25
40384;BME280;26097;42.366;23.818;2023-02-23T12:12:24;93932.03;;;14.12;53.71
40384;BME280;26097;42.366;23.818;2023-02-23T12:19:23;93932.78;;;14.42;52.48
40384;BME280;26097;42.366;23.818;2023-02-23T12:22:32;93932.88;;;14.51;52.21
40384;BME280;26097;42.366;23.818;2023-02-23T12:29:43;93938.38;;;14.20;52.50
40384;BME280;26097;42.366;23.818;2023-02-23T12:33:03;93930.91;;;14.25;52.39
40384;BME280;26097;42.366;23.818;2023-02-23T12:36:22;93937.91;;;14.34;51.33
40384;BME280;26097;42.366;23.818;2023-02-23T12:39:35;93930.03;;;14.34;52.47
40384;BME280;26097;42.366;23.818;2023-02-23T12:46:11;93943.75;;;14.94;49.51
40384;BME280;26097;42.366;23.818;2023-02-23T12:52:40;93945.75;;;14.82;49.36
40384;BME280;26097;42.366;23.818;2023-02-23T13:02:41;93950.22;;;14.71;49.78
40384;BME280;26097;42.366;23.818;2023-02-23T13:19:28;93962.22;;;14.74;49.25
40384;BME280;26097;42.366;23.818;2023-02-23T13:22:46;93957.59;;;14.58;50.11
40384;BME280;26097;42.366;23.818;2023-02-23T13:29:04;93963.84;;;15.31;49.39
40384;BME280;26097;42.366;23.818;2023-02-23T13:32:16;93964.00;;;15.48;48.69
40384;BME280;26097;42.366;23.818;2023-02-23T13:35:18;93968.53;;;15.09;49.08
40384;BME280;26097;42.366;23.818;2023-02-23T13:38:41;93976.66;;;15.16;48.12
40384;BME280;26097;42.366;23.818;2023-02-23T13:41:52;93970.38;;;14.99;49.22
40384;BME280;26097;42.366;23.818;2023-02-23T13:48:43;93971.09;;;14.16;50.43
40384;BME280;26097;42.366;23.818;2023-02-23T13:51:52;93982.31;;;13.88;50.80
40384;BME280;26097;42.366;23.818;2023-02-23T13:54:57;93974.88;;;13.44;51.78
40384;BME280;26097;42.366;23.818;2023-02-23T13:58:11;93975.91;;;13.32;52.42
40384;BME280;26097;42.366;23.818;2023-02-23T14:01:16;93985.59;;;13.41;52.67
40384;BME280;26097;42.366;23.818;2023-02-23T14:04:24;93984.19;;;13.27;53.40
40384;BME280;26097;42.366;23.818;2023-02-23T14:07:30;93991.75;;;13.20;53.49
40384;BME280;26097;42.366;23.818;2023-02-23T14:10:37;93993.19;;;12.93;54.63
40384;BME280;26097;42.366;23.818;2023-02-23T14:13:40;93984.94;;;12.88;54.88
40384;BME280;26097;42.366;23.818;2023-02-23T14:16:42;93990.69;;;12.82;55.05
40384;BME280;26097;42.366;23.818;2023-02-23T14:24:02;93990.97;;;12.79;56.23
40384;BME280;26097;42.366;23.818;2023-02-23T14:30:12;94001.84;;;12.22;57.84
40384;BME280;26097;42.366;23.818;2023-02-23T14:33:49;93998.41;;;12.21;58.25
40384;BME280;26097;42.366;23.818;2023-02-23T14:36:50;94001.38;;;12.17;58.12
40384;BME280;26097;42.366;23.818;2023-02-23T14:40:30;94000.56;;;12.16;58.24
40384;BME280;26097;42.366;23.818;2023-02-23T14:43:40;94000.69;;;11.93;59.89
40384;BME280;26097;42.366;23.818;2023-02-23T14:47:12;94003.56;;;11.57;60.96
40384;BME280;26097;42.366;23.818;2023-02-23T14:50:21;94003.16;;;11.41;61.51
40384;BME280;26097;42.366;23.818;2023-02-23T14:53:24;94005.81;;;11.18;61.85
40384;BME280;26097;42.366;23.818;2023-02-23T14:56:24;94004.06;;;11.07;62.65
40384;BME280;26097;42.366;23.818;2023-02-23T14:59:27;94004.22;;;10.94;63.27
40384;BME280;26097;42.366;23.818;2023-02-23T15:02:29;94003.53;;;10.81;63.93
40384;BME280;26097;42.366;23.818;2023-02-23T15:05:51;94008.03;;;10.67;64.32
40384;BME280;26097;42.366;23.818;2023-02-23T15:08:51;94005.41;;;10.56;64.85
40384;BME280;26097;42.366;23.818;2023-02-23T15:11:52;94004.72;;;10.42;66.74
40384;BME280;26097;42.366;23.818;2023-02-23T15:14:57;94011.53;;;10.32;67.81
40384;BME280;26097;42.366;23.818;2023-02-23T15:18:01;94018.16;;;10.13;68.83
40384;BME280;26097;42.366;23.818;2023-02-23T15:21:22;94017.53;;;9.98;70.48
40384;BME280;26097;42.366;23.818;2023-02-23T15:24:42;94027.09;;;9.86;71.07
40384;BME280;26097;42.366;23.818;2023-02-23T15:27:43;94028.22;;;9.71;73.03
40384;BME280;26097;42.366;23.818;2023-02-23T15:30:46;94030.75;;;9.60;72.33
40384;BME280;26097;42.366;23.818;2023-02-23T15:33:47;94034.75;;;9.52;73.13
40384;BME280;26097;42.366;23.818;2023-02-23T15:36:54;94033.88;;;9.40;75.74
40384;BME280;26097;42.366;23.818;2023-02-23T15:40:00;94036.00;;;9.35;77.05
40384;BME280;26097;42.366;23.818;2023-02-23T15:43:03;94046.22;;;9.25;77.24
40384;BME280;26097;42.366;23.818;2023-02-23T15:46:04;94046.88;;;9.16;78.04
40384;BME280;26097;42.366;23.818;2023-02-23T15:49:05;94051.06;;;9.06;79.95
40384;BME280;26097;42.366;23.818;2023-02-23T15:52:08;94054.44;;;8.95;82.78
40384;BME280;26097;42.366;23.818;2023-02-23T15:55:16;94053.63;;;8.81;81.39
40384;BME280;26097;42.366;23.818;2023-02-23T15:58:24;94050.84;;;8.71;84.60
40384;BME280;26097;42.366;23.818;2023-02-23T16:01:27;94061.34;;;8.57;86.05
40384;BME280;26097;42.366;23.818;2023-02-23T16:04:32;94066.19;;;8.49;91.36
40384;BME280;26097;42.366;23.818;2023-02-23T16:07:39;94068.81;;;8.36;94.30
40384;BME280;26097;42.366;23.818;2023-02-23T16:10:44;94076.47;;;8.24;97.67
40384;BME280;26097;42.366;23.818;2023-02-23T16:13:52;94083.13;;;8.15;98.46
40384;BME280;26097;42.366;23.818;2023-02-23T16:16:53;94091.41;;;8.08;97.85
40384;BME280;26097;42.366;23.818;2023-02-23T16:20:27;94084.34;;;7.97;100.00
40384;BME280;26097;42.366;23.818;2023-02-23T16:23:32;94097.00;;;7.89;100.00
40384;BME280;26097;42.366;23.818;2023-02-23T16:26:51;94100.09;;;7.81;100.00
40384;BME280;26097;42.366;23.818;2023-02-23T16:29:57;94100.66;;;7.71;100.00
40384;BME280;26097;42.366;23.818;2023-02-23T16:33:05;94099.59;;;7.61;100.00
40384;BME280;26097;42.366;23.818;2023-02-23T16:39:10;94108.06;;;7.50;100.00
40384;BME280;26097;42.366;23.818;2023-02-23T16:42:32;94114.88;;;7.38;100.00
40384;BME280;26097;42.366;23.818;2023-02-23T16:45:33;94115.53;;;7.27;100.00
40384;BME280;26097;42.366;23.818;2023-02-23T16:48:33;94124.06;;;7.15;100.00
40384;BME280;26097;42.366;23.818;2023-02-23T16:51:34;94132.13;;;7.10;100.00
40384;BME280;26097;42.366;23.818;2023-02-23T16:54:34;94132.31;;;7.07;100.00
40384;BME280;26097;42.366;23.818;2023-02-23T16:57:39;94135.56;;;6.96;100.00
40384;BME280;26097;42.366;23.818;2023-02-23T17:00:40;94131.13;;;6.84;100.00
40384;BME280;26097;42.366;23.818;2023-02-23T17:03:42;94145.19;;;6.80;100.00
40384;BME280;26097;42.366;23.818;2023-02-23T17:06:44;94143.72;;;6.76;100.00
40384;BME280;26097;42.366;23.818;2023-02-23T17:09:46;94147.44;;;6.71;100.00
40384;BME280;26097;42.366;23.818;2023-02-23T17:12:47;94148.63;;;6.66;100.00
40384;BME280;26097;42.366;23.818;2023-02-23T17:15:49;94155.84;;;6.61;100.00
40384;BME280;26097;42.366;23.818;2023-02-23T17:18:55;94162.88;;;6.59;100.00
40384;BME280;26097;42.366;23.818;2023-02-23T17:21:58;94158.69;;;6.56;100.00
40384;BME280;26097;42.366;23.818;2023-02-23T17:24:58;94157.03;;;6.55;100.00
40384;BME280;26097;42.366;23.818;2023-02-23T17:28:02;94159.06;;;6.50;100.00
40384;BME280;26097;42.366;23.818;2023-02-23T17:31:03;94161.72;;;6.48;100.00
40384;BME280;26097;42.366;23.818;2023-02-23T17:34:03;94167.91;;;6.46;100.00
40384;BME280;26097;42.366;23.818;2023-02-23T17:37:03;94174.00;;;6.45;100.00
40384;BME280;26097;42.366;23.818;2023-02-23T17:40:08;94160.50;;;6.39;100.00
40384;BME280;26097;42.366;23.818;2023-02-23T17:43:09;94167.53;;;6.37;100.00
40384;BME280;26097;42.366;23.818;2023-02-23T17:46:11;94168.84;;;6.30;100.00
40384;BME280;26097;42.366;23.818;2023-02-23T17:49:12;94167.31;;;6.26;100.00
40384;BME280;26097;42.366;23.818;2023-02-23T17:52:12;94168.16;;;6.26;100.00
40384;BME280;26097;42.366;23.818;2023-02-23T17:55:13;94167.50;;;6.23;100.00
40384;BME280;26097;42.366;23.818;2023-02-23T17:58:13;94167.75;;;6.18;100.00
40384;BME280;26097;42.366;23.818;2023-02-23T18:01:14;94172.38;;;6.13;100.00
40384;BME280;26097;42.366;23.818;2023-02-23T18:04:16;94174.22;;;6.11;100.00